KAST/AST METAR and TAF weather

Enter ICAO airport designator
Station Type Date Time Source
KAST METAR 2020/07/06 23:27 UTC NOAA

KAST 062327Z AUTO 25009KT 10SM SCT023 17/11 A3008 RMK AO2 T01720111


Station Type Date Time Source
KAST Decoded METAR 2020/07/06 23:27 UTC NOAA

PORT OF ASTORIA AIRPORT, OR, United States (KAST) 46-09N 123-53W 3M
Jul 06, 2020 - 07:27 PM EDT / 2020.07.06 2327 UTC
Wind: from the WSW (250 degrees) at 10 MPH (9 KT):0
Visibility: 10 mile(s):0
Sky conditions: partly cloudy
Temperature: 63.0 F (17.2 C)
Dew Point: 52.0 F (11.1 C)
Relative Humidity: 67%
Pressure (altimeter): 30.08 in. Hg (1018 hPa)
ob: KAST 062327Z AUTO 25009KT 10SM SCT023 17/11 A3008 RMK AO2 T01720111
cycle: 23

Station Type Date Time Source
KAST TAF 2020/07/06 18:51 UTC NOAA

TAF KAST 061743Z 0618/0718 27007KT P6SM SCT025 OVC040
TEMPO 0618/0619 6SM -RA BKN020 OVC030
FM062200 29009KT P6SM SCT025 BKN040
FM070300 27006KT P6SM SCT025 OVC040
FM070600 21004KT P6SM VCSH SCT015 OVC025

Example: see airport list